Time;durP1;ratioP1;P1;durP2;ratioP2;P2;SDS_P1;SDS_P2;PMS_P1;PMS_P2;Temp;Humidity;BMP_temperature;BMP_pressure;BME280_temperature;BME280_humidity;BME280_pressure;Samples;Min_cycle;Max_cycle;Signal;HPM_P1;HPM_P2
2022/06/15 00:00:05;;;;;;;4.55;2.60;;;12.50;99.90;;;;;;4985149;28;20206;-62
2022/06/15 00:02:32;;;;;;;2.80;2.42;;;12.40;99.90;;;;;;5007931;28;20241;-62
2022/06/15 00:05:00;;;;;;;2.65;2.45;;;12.50;99.90;;;;;;4995077;28;20206;-62
2022/06/15 00:07:27;;;;;;;3.70;2.30;;;12.50;99.90;;;;;;4990988;28;20569;-62
2022/06/15 00:09:54;;;;;;;4.68;2.78;;;12.50;99.90;;;;;;5006306;28;20202;-62
2022/06/15 00:12:21;;;;;;;5.35;2.45;;;12.50;99.90;;;;;;4997856;28;20226;-61
2022/06/15 00:14:48;;;;;;;4.18;2.60;;;12.30;99.90;;;;;;4982888;28;20212;-62
2022/06/15 00:17:15;;;;;;;3.25;2.38;;;12.30;99.90;;;;;;5004318;28;20221;-62
2022/06/15 00:19:41;;;;;;;3.53;2.10;;;12.20;99.90;;;;;;4985534;28;20958;-63
2022/06/15 00:22:11;;;;;;;3.95;2.50;;;12.20;99.90;;;;;;5003945;28;20742;-62
2022/06/15 00:24:38;;;;;;;4.80;2.65;;;11.20;99.90;;;;;;4996950;28;20678;-62
2022/06/15 00:27:06;;;;;;;2.47;2.28;;;12.10;99.90;;;;;;5003185;28;20217;-62
2022/06/15 00:29:37;;;;;;;4.50;2.38;;;12.00;99.90;;;;;;4994653;28;20573;-62
2022/06/15 00:32:05;;;;;;;4.95;2.72;;;11.90;99.90;;;;;;4986049;28;20204;-62
2022/06/15 00:34:32;;;;;;;3.55;2.38;;;12.10;99.90;;;;;;5001528;28;20202;-62
2022/06/15 00:36:59;;;;;;;5.55;2.60;;;12.00;99.90;;;;;;4976750;28;20233;-62
2022/06/15 00:39:28;;;;;;;4.15;2.63;;;12.00;99.90;;;;;;5008735;28;20198;-62
2022/06/15 00:41:54;;;;;;;7.00;2.47;;;12.00;99.90;;;;;;5004841;28;20232;-62
2022/06/15 00:44:35;;;;;;;3.17;2.50;;;12.00;99.90;;;;;;4987337;28;21007;-63
2022/06/15 00:47:05;;;;;;;7.38;3.03;;;11.90;99.90;;;;;;4992321;28;20297;-62
2022/06/15 00:49:36;;;;;;;3.63;2.50;;;11.90;99.90;;;;;;4982490;28;20579;-62
2022/06/15 00:52:07;;;;;;;3.55;3.00;;;11.90;99.90;;;;;;4990532;28;20210;-62
2022/06/15 00:54:35;;;;;;;5.50;2.50;;;11.90;99.90;;;;;;5008050;28;20325;-62
2022/06/15 00:57:04;;;;;;;3.50;2.83;;;11.90;99.90;;;;;;5003800;28;20210;-62
2022/06/15 00:59:33;;;;;;;3.60;2.65;;;11.90;99.90;;;;;;4994459;28;20221;-62
2022/06/15 01:02:01;;;;;;;3.25;2.47;;;11.90;99.90;;;;;;4977936;28;20230;-62
2022/06/15 01:04:35;;;;;;;5.63;2.58;;;11.90;99.90;;;;;;4995875;28;20260;-62
2022/06/15 01:07:10;;;;;;;2.70;2.35;;;11.90;99.90;;;;;;4985024;28;20210;-62
2022/06/15 01:09:48;;;;;;;2.90;2.50;;;11.90;99.90;;;;;;5013404;28;20201;-62
2022/06/15 01:12:22;;;;;;;3.53;2.40;;;11.60;99.90;;;;;;5000919;28;20203;-62
2022/06/15 01:15:09;;;;;;;2.80;2.58;;;11.80;99.90;;;;;;4980534;28;20210;-62
2022/06/15 01:17:47;;;;;;;3.97;2.33;;;11.70;99.90;;;;;;4987889;28;20219;-62
2022/06/15 01:20:42;;;;;;;3.85;2.38;;;11.70;99.90;;;;;;4992654;28;20209;-62
2022/06/15 01:23:48;;;;;;;3.67;2.70;;;11.50;99.90;;;;;;4978999;28;20202;-62
2022/06/15 01:26:36;;;;;;;2.63;2.40;;;11.50;99.90;;;;;;4998672;28;20217;-62
2022/06/15 01:29:21;;;;;;;3.47;2.28;;;11.40;99.90;;;;;;5009202;28;20202;-62
2022/06/15 01:31:55;;;;;;;2.80;2.50;;;11.50;99.90;;;;;;4980795;28;20236;-63
2022/06/15 01:34:29;;;;;;;4.82;2.13;;;11.50;99.90;;;;;;4989411;28;20210;-61
2022/06/15 01:37:03;;;;;;;3.97;2.22;;;11.40;99.90;;;;;;5005556;28;20258;-61
2022/06/15 01:39:38;;;;;;;2.28;2.03;;;11.20;99.90;;;;;;4992231;28;20698;-61
2022/06/15 01:42:09;;;;;;;3.38;1.77;;;11.20;99.90;;;;;;5001479;28;20229;-62
2022/06/15 01:44:40;;;;;;;2.53;2.10;;;11.00;99.90;;;;;;5000365;28;20229;-62
2022/06/15 01:47:19;;;;;;;2.42;2.22;;;10.90;99.90;;;;;;4991011;28;20206;-62
2022/06/15 01:49:50;;;;;;;2.38;2.15;;;10.90;99.90;;;;;;4983893;28;20684;-62
2022/06/15 01:52:21;;;;;;;2.75;2.55;;;10.90;99.90;;;;;;5009945;28;20202;-61
2022/06/15 01:54:51;;;;;;;3.35;2.08;;;10.60;99.90;;;;;;4989919;28;20210;-62
2022/06/15 01:57:20;;;;;;;2.40;2.20;;;11.00;99.90;;;;;;5004342;28;20686;-62
2022/06/15 01:59:54;;;;;;;2.45;2.15;;;11.00;99.90;;;;;;4990655;28;20250;-61
2022/06/15 02:02:30;;;;;;;2.72;2.53;;;10.90;99.90;;;;;;4995055;28;20233;-62
2022/06/15 02:05:05;;;;;;;3.15;2.60;;;10.90;99.90;;;;;;4989190;28;20236;-62
2022/06/15 02:07:41;;;;;;;2.55;2.35;;;10.90;99.90;;;;;;4988129;28;20209;-61
2022/06/15 02:10:14;;;;;;;3.25;2.63;;;11.00;99.90;;;;;;4991657;28;20690;-62
2022/06/15 02:12:47;;;;;;;2.92;2.55;;;11.10;99.90;;;;;;4980753;28;20667;-62
2022/06/15 02:15:18;;;;;;;4.70;2.73;;;11.10;99.90;;;;;;5005946;28;20214;-62
2022/06/15 02:17:47;;;;;;;3.63;2.80;;;11.00;99.90;;;;;;4981977;28;20847;-62
2022/06/15 02:20:17;;;;;;;4.40;2.90;;;11.00;99.90;;;;;;4997793;28;20225;-62
2022/06/15 02:22:46;;;;;;;4.38;2.88;;;11.10;99.90;;;;;;5007467;28;20221;-62
2022/06/15 02:25:16;;;;;;;5.88;2.85;;;11.10;99.90;;;;;;4989992;28;20198;-62
2022/06/15 02:27:45;;;;;;;3.47;3.00;;;11.10;99.90;;;;;;4998142;28;22127;-62
2022/06/15 02:30:17;;;;;;;6.45;3.22;;;11.20;99.90;;;;;;5005898;28;20202;-62
2022/06/15 02:32:47;;;;;;;3.10;2.63;;;11.10;99.90;;;;;;4983533;28;20213;-62
2022/06/15 02:35:14;;;;;;;3.90;3.08;;;11.10;99.90;;;;;;4986837;28;20206;-62
2022/06/15 02:37:41;;;;;;;5.50;3.55;;;11.10;99.90;;;;;;5003774;28;20288;-62
2022/06/15 02:40:09;;;;;;;4.43;3.60;;;10.90;99.90;;;;;;4983605;28;20210;-62
2022/06/15 02:42:40;;;;;;;4.82;3.20;;;11.40;99.90;;;;;;5008978;28;20234;-62
2022/06/15 02:45:11;;;;;;;6.18;3.33;;;11.30;99.90;;;;;;5007676;28;20205;-62
2022/06/15 02:47:41;;;;;;;4.38;3.60;;;11.30;99.90;;;;;;4992346;28;20202;-62
2022/06/15 02:50:11;;;;;;;5.25;3.40;;;11.30;99.90;;;;;;5010716;28;20199;-65
2022/06/15 02:52:43;;;;;;;6.25;3.90;;;11.20;99.90;;;;;;4974392;28;20211;-62
2022/06/15 02:55:12;;;;;;;7.78;3.75;;;11.30;99.90;;;;;;4985119;28;20202;-63
2022/06/15 02:57:45;;;;;;;4.95;3.80;;;11.30;99.90;;;;;;5003419;28;20202;-62
2022/06/15 03:00:13;;;;;;;5.53;3.55;;;12.10;99.90;;;;;;5002623;28;20205;-62
2022/06/15 03:02:40;;;;;;;9.27;4.53;;;11.30;99.90;;;;;;4998926;28;20234;-62
2022/06/15 03:05:09;;;;;;;3.70;3.13;;;11.30;99.90;;;;;;5007838;28;20213;-62
2022/06/15 03:07:36;;;;;;;4.03;2.97;;;11.30;99.90;;;;;;4992121;28;20341;-63
2022/06/15 03:10:03;;;;;;;4.53;3.17;;;11.30;99.90;;;;;;4976363;28;20582;-63
2022/06/15 03:12:31;;;;;;;3.25;2.95;;;11.10;99.90;;;;;;5009095;28;20890;-62
2022/06/15 03:14:58;;;;;;;3.50;2.80;;;11.10;99.90;;;;;;4997463;28;20237;-63
2022/06/15 03:17:25;;;;;;;3.97;3.17;;;11.00;99.90;;;;;;5003232;28;20388;-62
2022/06/15 03:19:51;;;;;;;2.92;2.53;;;11.00;99.90;;;;;;4996704;28;20998;-62
2022/06/15 03:22:19;;;;;;;4.22;2.13;;;10.90;99.90;;;;;;4988621;28;20230;-62
2022/06/15 03:24:46;;;;;;;1.85;1.70;;;10.80;99.90;;;;;;4994379;28;20229;-62
2022/06/15 03:27:13;;;;;;;2.20;2.00;;;10.60;99.90;;;;;;4976771;28;20396;-63
2022/06/15 03:29:40;;;;;;;2.65;2.15;;;10.50;99.90;;;;;;4996553;28;20329;-62
2022/06/15 03:32:08;;;;;;;2.42;2.22;;;10.50;99.90;;;;;;4987181;28;20288;-62
2022/06/15 03:34:35;;;;;;;3.97;2.38;;;10.50;99.90;;;;;;4997585;28;20194;-62
2022/06/15 03:37:01;;;;;;;5.65;2.80;;;10.80;99.90;;;;;;5003378;28;20233;-63
2022/06/15 03:39:30;;;;;;;5.93;2.90;;;10.60;99.90;;;;;;4984872;28;20858;-62
2022/06/15 03:42:06;;;;;;;3.00;2.70;;;10.60;99.90;;;;;;4985279;28;20227;-62
2022/06/15 03:44:33;;;;;;;4.00;3.20;;;10.70;99.90;;;;;;4991610;28;20213;-62
2022/06/15 03:47:00;;;;;;;5.78;3.30;;;10.80;99.90;;;;;;4998097;28;20206;-62
2022/06/15 03:49:26;;;;;;;5.30;3.53;;;10.90;99.90;;;;;;4993230;28;20201;-62
2022/06/15 03:51:53;;;;;;;3.42;3.13;;;10.90;99.90;;;;;;5002730;28;20237;-62
2022/06/15 03:54:21;;;;;;;4.15;3.30;;;11.00;99.90;;;;;;4972329;28;20230;-62
2022/06/15 03:56:50;;;;;;;4.10;3.57;;;11.00;99.90;;;;;;4971236;28;20235;-62
2022/06/15 03:59:17;;;;;;;3.30;3.00;;;11.00;99.90;;;;;;4987763;28;20961;-62
2022/06/15 04:01:44;;;;;;;3.80;3.03;;;11.10;99.90;;;;;;4997176;28;20226;-62
2022/06/15 04:04:11;;;;;;;4.22;3.45;;;11.20;99.90;;;;;;4975119;28;20902;-62
2022/06/15 04:06:37;;;;;;;8.30;3.95;;;11.10;99.90;;;;;;4988818;28;20221;-62
2022/06/15 04:09:04;;;;;;;5.78;4.13;;;13.10;99.90;;;;;;4965853;28;20252;-63
2022/06/15 04:14:17;;;;;;;7.50;4.63;;;11.40;99.90;;;;;;4977455;28;20726;-62
2022/06/15 04:16:44;;;;;;;4.90;4.07;;;11.40;99.90;;;;;;4983413;28;20248;-62
2022/06/15 04:19:11;;;;;;;5.53;3.58;;;11.50;99.90;;;;;;4983484;28;20225;-62
2022/06/15 04:21:38;;;;;;;4.40;3.25;;;11.40;99.90;;;;;;4976016;28;20311;-62
2022/06/15 04:24:11;;;;;;;4.78;3.28;;;11.60;99.90;;;;;;4992336;28;20227;-62
2022/06/15 04:26:38;;;;;;;5.30;3.65;;;11.70;99.90;;;;;;4952434;28;20346;-64
2022/06/15 04:29:05;;;;;;;11.32;3.97;;;11.90;99.90;;;;;;4984473;28;20222;-62
2022/06/15 04:31:33;;;;;;;8.65;3.63;;;11.90;99.90;;;;;;4978361;28;20230;-61
2022/06/15 04:34:00;;;;;;;5.15;3.75;;;12.00;99.90;;;;;;4965487;28;20213;-62
2022/06/15 04:36:29;;;;;;;5.32;3.67;;;12.00;99.90;;;;;;4979042;28;21056;-62
2022/06/15 04:38:56;;;;;;;5.50;3.55;;;10.30;99.90;;;;;;4971233;28;20247;-62
2022/06/15 04:41:23;;;;;;;3.42;3.13;;;12.10;99.90;;;;;;4975141;28;20236;-62
2022/06/15 04:43:50;;;;;;;4.68;3.38;;;12.00;99.90;;;;;;4963916;28;20231;-62
2022/06/15 04:46:17;;;;;;;3.95;3.55;;;12.20;99.90;;;;;;4977106;28;20739;-62
2022/06/15 04:48:46;;;;;;;6.80;3.45;;;12.30;99.90;;;;;;4982657;28;20225;-62
2022/06/15 04:51:15;;;;;;;6.40;3.35;;;12.50;99.90;;;;;;4976641;28;21098;-62
2022/06/15 04:53:42;;;;;;;6.80;3.92;;;12.50;99.90;;;;;;4990088;28;20233;-62
2022/06/15 04:56:09;;;;;;;4.15;3.38;;;12.60;99.90;;;;;;4973866;28;20230;-62
2022/06/15 04:58:36;;;;;;;5.35;3.40;;;12.60;99.90;;;;;;4987238;28;20213;-63
2022/06/15 05:01:03;;;;;;;6.13;3.72;;;12.80;99.90;;;;;;4978236;28;21002;-63
2022/06/15 05:03:30;;;;;;;3.28;2.97;;;12.70;99.90;;;;;;4993327;28;20231;-63
2022/06/15 05:05:59;;;;;;;7.00;3.22;;;12.80;99.90;;;;;;4976486;28;20206;-63
2022/06/15 05:08:26;;;;;;;7.70;3.70;;;12.90;99.90;;;;;;4989703;28;20222;-62
2022/06/15 05:10:53;;;;;;;10.30;3.72;;;12.90;99.90;;;;;;4983723;28;20691;-63
2022/06/15 05:13:20;;;;;;;5.43;3.72;;;13.10;99.90;;;;;;4976046;28;20226;-62
2022/06/15 05:15:47;;;;;;;5.10;3.45;;;13.20;99.90;;;;;;4968936;28;20229;-64
2022/06/15 05:18:14;;;;;;;6.18;3.65;;;13.10;99.90;;;;;;4989453;28;20228;-63
2022/06/15 05:20:41;;;;;;;7.97;4.18;;;13.40;99.90;;;;;;4991787;28;20598;-63
2022/06/15 05:23:13;;;;;;;6.40;3.70;;;13.20;99.90;;;;;;4983646;28;20237;-63
2022/06/15 05:25:39;;;;;;;5.13;3.65;;;13.30;99.90;;;;;;5003493;28;20218;-62
2022/06/15 05:28:08;;;;;;;6.45;3.80;;;13.40;99.90;;;;;;4988124;28;20319;-63
2022/06/15 05:30:35;;;;;;;6.10;3.78;;;13.50;99.90;;;;;;4977422;28;20694;-63
2022/06/15 05:33:01;;;;;;;6.95;4.40;;;13.60;99.90;;;;;;4993173;28;20225;-64
2022/06/15 05:35:28;;;;;;;7.72;4.53;;;13.60;99.90;;;;;;5006987;28;20237;-63
2022/06/15 05:37:55;;;;;;;6.07;3.83;;;13.70;99.90;;;;;;4990340;28;20234;-62
2022/06/15 05:40:23;;;;;;;8.90;4.50;;;13.80;99.90;;;;;;5000950;28;20199;-63
2022/06/15 05:42:50;;;;;;;7.90;3.65;;;14.00;99.90;;;;;;4980250;28;20606;-64
2022/06/15 05:45:17;;;;;;;5.95;3.67;;;13.90;99.90;;;;;;4984343;28;20226;-63
2022/06/15 05:47:44;;;;;;;7.32;3.90;;;14.00;99.90;;;;;;4990986;28;20225;-63
2022/06/15 05:50:14;;;;;;;5.28;3.60;;;14.00;99.90;;;;;;5003770;28;20237;-63
2022/06/15 05:52:41;;;;;;;6.50;3.58;;;14.00;99.90;;;;;;5004162;28;20225;-63
2022/06/15 05:55:09;;;;;;;3.47;3.00;;;14.10;99.90;;;;;;4990720;28;20209;-63
2022/06/15 05:57:37;;;;;;;8.77;3.70;;;14.20;99.90;;;;;;4977721;28;20211;-63
2022/06/15 06:00:06;;;;;;;7.03;3.50;;;14.50;99.90;;;;;;4979177;28;20202;-63
2022/06/15 06:02:32;;;;;;;4.38;3.25;;;14.50;99.90;;;;;;4997085;28;20234;-63
2022/06/15 06:04:59;;;;;;;4.68;3.17;;;14.50;99.90;;;;;;4986190;28;20225;-63
2022/06/15 06:07:26;;;;;;;6.13;3.25;;;14.60;99.90;;;;;;5007345;28;20230;-63
2022/06/15 06:09:53;;;;;;;3.58;2.80;;;14.60;99.90;;;;;;5011919;28;20650;-63
2022/06/15 06:12:20;;;;;;;5.38;3.00;;;14.60;99.90;;;;;;5014313;28;20214;-63
2022/06/15 06:14:50;;;;;;;3.72;3.20;;;14.60;99.90;;;;;;4988055;28;20213;-64
2022/06/15 06:17:17;;;;;;;3.42;2.95;;;14.70;99.90;;;;;;4998520;28;20228;-64
2022/06/15 06:19:44;;;;;;;3.63;2.90;;;14.70;99.90;;;;;;4996727;28;20244;-63
2022/06/15 06:22:11;;;;;;;3.60;2.58;;;14.80;99.90;;;;;;4993272;28;20218;-63
2022/06/15 06:24:38;;;;;;;5.38;2.92;;;14.80;99.90;;;;;;4980860;28;20234;-63
2022/06/15 06:27:06;;;;;;;4.85;2.40;;;14.90;99.90;;;;;;4981717;28;20199;-61
2022/06/15 06:29:33;;;;;;;6.20;1.98;;;15.00;99.90;;;;;;4974761;28;20213;-61
2022/06/15 06:32:02;;;;;;;3.22;2.47;;;15.10;99.90;;;;;;4976676;28;20214;-61
2022/06/15 06:34:30;;;;;;;5.78;2.45;;;15.20;99.90;;;;;;4997662;28;20673;-61
2022/06/15 06:36:58;;;;;;;5.07;2.38;;;15.10;99.90;;;;;;4976542;28;20207;-61
2022/06/15 06:39:27;;;;;;;4.93;2.10;;;15.20;99.90;;;;;;4999885;28;20230;-61
2022/06/15 06:41:54;;;;;;;2.00;1.77;;;15.30;99.90;;;;;;4987303;28;20292;-61
2022/06/15 06:44:20;;;;;;;4.82;2.05;;;15.40;99.90;;;;;;4985441;28;20234;-60
2022/06/15 06:46:49;;;;;;;4.55;1.70;;;15.40;99.90;;;;;;4985308;28;20217;-61
2022/06/15 06:49:18;;;;;;;5.07;2.40;;;15.40;99.90;;;;;;4990093;28;20676;-61
2022/06/15 06:51:46;;;;;;;1.98;1.75;;;15.40;99.90;;;;;;4974128;28;20210;-61
2022/06/15 06:54:14;;;;;;;5.88;2.35;;;15.50;99.90;;;;;;4999760;28;20199;-62
2022/06/15 06:56:41;;;;;;;6.13;2.22;;;15.50;99.90;;;;;;5004544;28;20938;-61
2022/06/15 06:59:10;;;;;;;3.35;2.00;;;15.60;99.90;;;;;;4989504;28;20206;-61
2022/06/15 07:01:39;;;;;;;4.32;2.17;;;15.60;99.90;;;;;;4987519;28;20672;-61
2022/06/15 07:04:06;;;;;;;3.97;2.13;;;15.70;99.90;;;;;;4979429;28;20244;-61
2022/06/15 07:06:35;;;;;;;4.93;2.47;;;15.70;99.90;;;;;;5003935;28;20194;-61
2022/06/15 07:09:02;;;;;;;4.38;1.77;;;15.70;99.90;;;;;;4985962;28;20199;-60
2022/06/15 07:11:29;;;;;;;4.93;2.30;;;15.70;99.90;;;;;;4982339;28;20240;-61
2022/06/15 07:13:56;;;;;;;4.18;2.03;;;15.80;99.90;;;;;;4993494;28;20227;-61
2022/06/15 07:16:23;;;;;;;5.68;1.90;;;15.90;99.90;;;;;;4977546;28;20393;-61
2022/06/15 07:18:50;;;;;;;4.03;2.10;;;15.90;99.90;;;;;;4972154;28;20609;-61
2022/06/15 07:21:20;;;;;;;2.95;1.90;;;15.90;99.90;;;;;;4977679;28;20638;-62
2022/06/15 07:23:50;;;;;;;7.70;2.13;;;16.00;99.90;;;;;;5000109;28;20229;-62
2022/06/15 07:26:20;;;;;;;4.68;2.22;;;16.00;99.90;;;;;;5002592;28;20212;-61
2022/06/15 07:28:47;;;;;;;5.57;2.05;;;16.00;99.90;;;;;;4991192;28;20213;-62
2022/06/15 07:31:21;;;;;;;5.82;2.30;;;16.10;99.90;;;;;;4984555;28;20213;-62
2022/06/15 07:33:48;;;;;;;3.58;1.80;;;16.10;99.90;;;;;;4973526;28;20206;-62
2022/06/15 07:36:15;;;;;;;4.32;1.98;;;16.20;99.90;;;;;;4989258;28;20220;-62
2022/06/15 07:38:42;;;;;;;5.63;1.77;;;16.20;99.90;;;;;;4991402;28;20745;-61
2022/06/15 07:41:10;;;;;;;4.55;1.80;;;16.20;99.90;;;;;;4991332;28;21002;-62
2022/06/15 07:43:39;;;;;;;4.03;2.08;;;16.20;99.90;;;;;;4991745;28;20222;-61
2022/06/15 07:46:06;;;;;;;4.05;2.03;;;16.30;99.90;;;;;;5000153;28;20203;-62
2022/06/15 07:51:28;;;;;;;4.80;1.98;;;16.30;99.90;;;;;;4986026;28;20687;-62
2022/06/15 07:53:55;;;;;;;3.20;1.88;;;16.50;99.90;;;;;;4977376;28;21019;-62
2022/06/15 07:56:23;;;;;;;2.47;1.70;;;16.50;99.90;;;;;;4999542;28;20194;-62
2022/06/15 07:58:50;;;;;;;8.95;2.25;;;16.50;99.90;;;;;;4993929;28;21234;-62
2022/06/15 08:01:17;;;;;;;4.10;1.42;;;16.60;99.90;;;;;;4994186;28;20881;-62
2022/06/15 08:03:44;;;;;;;4.18;2.38;;;16.60;99.90;;;;;;4965681;28;20283;-62
2022/06/15 08:06:11;;;;;;;3.33;1.77;;;16.70;99.90;;;;;;5000467;28;20214;-62
2022/06/15 08:08:38;;;;;;;1.77;1.67;;;16.90;99.90;;;;;;4969896;28;20384;-61
2022/06/15 08:11:05;;;;;;;7.85;1.88;;;;;;;;;;4996256;28;20233;-62
2022/06/15 08:13:34;;;;;;;1.90;1.50;;;15.30;99.90;;;;;;4985443;28;20238;-61
2022/06/15 08:16:01;;;;;;;8.55;2.25;;;17.10;99.90;;;;;;4993999;28;20222;-62
2022/06/15 08:18:30;;;;;;;6.28;2.15;;;17.20;99.90;;;;;;4961952;28;20230;-62
2022/06/15 08:21:02;;;;;;;6.10;1.98;;;17.20;99.90;;;;;;4980750;28;20985;-62
2022/06/15 08:23:32;;;;;;;2.95;2.10;;;17.20;99.90;;;;;;4999795;28;20222;-62
2022/06/15 08:26:02;;;;;;;3.28;1.73;;;17.20;99.90;;;;;;5003644;28;20202;-62
2022/06/15 08:28:33;;;;;;;4.25;2.05;;;17.20;99.90;;;;;;4991088;28;20216;-62
2022/06/15 08:31:01;;;;;;;4.80;1.75;;;17.20;99.90;;;;;;4986719;28;20226;-61
2022/06/15 08:33:29;;;;;;;4.35;2.30;;;17.30;99.90;;;;;;4983251;28;20245;-61
2022/06/15 08:35:56;;;;;;;3.40;2.10;;;17.40;99.90;;;;;;4973152;28;20222;-61
2022/06/15 08:38:25;;;;;;;3.42;2.00;;;17.40;99.90;;;;;;4993068;28;20307;-62
2022/06/15 08:40:58;;;;;;;4.15;2.30;;;17.30;99.90;;;;;;4988334;28;20225;-62
2022/06/15 08:43:36;;;;;;;7.55;2.20;;;17.40;99.90;;;;;;4993795;28;20584;-62
2022/06/15 08:46:14;;;;;;;3.00;2.28;;;17.50;99.90;;;;;;4992695;28;20300;-62
2022/06/15 08:48:58;;;;;;;4.32;2.35;;;17.40;99.90;;;;;;4985513;28;20217;-62
2022/06/15 08:51:30;;;;;;;3.80;2.08;;;17.30;99.90;;;;;;4992846;28;20212;-61
2022/06/15 08:54:03;;;;;;;3.33;1.90;;;17.40;99.90;;;;;;4993648;28;20309;-62
2022/06/15 08:56:35;;;;;;;9.98;2.58;;;18.40;99.90;;;;;;4993326;28;20210;-62
2022/06/15 08:59:11;;;;;;;10.57;2.50;;;17.50;99.90;;;;;;5014533;28;20198;-61
2022/06/15 09:01:42;;;;;;;6.95;2.10;;;17.60;99.90;;;;;;4988749;28;20892;-62
2022/06/15 09:04:21;;;;;;;1.73;1.63;;;17.60;99.90;;;;;;5012561;28;20233;-61
2022/06/15 09:07:00;;;;;;;2.60;2.30;;;17.60;99.90;;;;;;4987996;28;20279;-62
2022/06/15 09:09:49;;;;;;;3.13;1.65;;;17.50;99.90;;;;;;4980576;28;20972;-62
2022/06/15 09:15:24;;;;;;;2.28;1.70;;;17.80;99.90;;;;;;4996963;28;20923;-62
2022/06/15 09:17:55;;;;;;;1.65;1.52;;;17.90;99.90;;;;;;5001905;28;20577;-62
2022/06/15 09:20:27;;;;;;;4.18;1.67;;;17.90;99.90;;;;;;4985577;28;20226;-61
2022/06/15 09:23:00;;;;;;;6.95;2.13;;;18.00;99.90;;;;;;4992076;28;20225;-62
2022/06/15 09:25:33;;;;;;;6.15;2.03;;;18.00;99.90;;;;;;4992261;28;20233;-62
2022/06/15 09:28:11;;;;;;;4.45;1.85;;;17.20;99.90;;;;;;5011260;28;20888;-61
2022/06/15 09:30:41;;;;;;;2.83;1.65;;;18.20;99.90;;;;;;4997071;28;20226;-61
2022/06/15 09:33:15;;;;;;;2.75;1.60;;;18.20;99.90;;;;;;5000825;28;20205;-62
2022/06/15 09:35:46;;;;;;;3.40;1.60;;;18.20;99.90;;;;;;4985542;28;20198;-62
2022/06/15 09:38:14;;;;;;;2.50;1.60;;;18.20;99.90;;;;;;4998128;28;20234;-62
2022/06/15 09:40:47;;;;;;;5.78;2.25;;;18.00;99.90;;;;;;4982322;28;20578;-62
2022/06/15 09:43:23;;;;;;;2.55;1.50;;;17.90;99.90;;;;;;4994848;28;20213;-62
2022/06/15 09:45:59;;;;;;;4.65;1.83;;;17.90;99.90;;;;;;5007115;28;20948;-62
2022/06/15 09:48:35;;;;;;;4.03;1.83;;;18.20;99.90;;;;;;4989146;28;20241;-62
2022/06/15 09:51:11;;;;;;;4.18;1.90;;;18.20;99.90;;;;;;4989414;28;20201;-61
2022/06/15 09:53:52;;;;;;;7.72;2.55;;;18.40;99.90;;;;;;4998286;28;20694;-62
2022/06/15 09:56:21;;;;;;;3.53;1.80;;;18.40;99.90;;;;;;4971193;28;20291;-61
2022/06/15 09:58:54;;;;;;;3.88;1.77;;;18.40;99.90;;;;;;4969200;28;20234;-62
2022/06/15 10:01:23;;;;;;;4.28;2.15;;;18.40;99.90;;;;;;4999497;28;20360;-60
2022/06/15 10:03:55;;;;;;;2.83;1.65;;;18.50;99.90;;;;;;4964765;28;20229;-61
2022/06/15 10:06:25;;;;;;;5.28;2.00;;;18.60;99.90;;;;;;4980240;28;20235;-61
2022/06/15 10:08:53;;;;;;;4.85;1.90;;;18.70;99.90;;;;;;4960434;28;20786;-61
2022/06/15 10:11:28;;;;;;;7.28;1.90;;;18.60;99.90;;;;;;4983864;28;20300;-61
2022/06/15 10:13:55;;;;;;;2.15;1.60;;;18.70;99.90;;;;;;4964609;28;20219;-61
2022/06/15 10:16:28;;;;;;;3.15;1.63;;;18.70;99.90;;;;;;4998306;28;20233;-61
2022/06/15 10:18:58;;;;;;;2.60;1.60;;;18.60;99.90;;;;;;4973453;28;20230;-61
2022/06/15 10:21:28;;;;;;;3.15;1.60;;;18.80;99.90;;;;;;4986148;28;20237;-61
2022/06/15 10:24:00;;;;;;;7.57;2.05;;;15.90;99.90;;;;;;4992130;28;20660;-61
2022/06/15 10:26:46;;;;;;;4.70;1.70;;;19.20;99.90;;;;;;4969350;28;20778;-62
2022/06/15 10:29:29;;;;;;;2.72;1.63;;;19.10;99.90;;;;;;4988523;28;20260;-61
2022/06/15 10:32:06;;;;;;;3.58;1.80;;;19.00;99.90;;;;;;4982301;28;20230;-61
2022/06/15 10:34:36;;;;;;;4.00;1.63;;;19.00;99.90;;;;;;4991260;28;20206;-61
2022/06/15 10:37:07;;;;;;;3.80;1.92;;;19.20;99.90;;;;;;4970102;28;20615;-61
2022/06/15 10:39:40;;;;;;;4.65;1.70;;;19.10;99.90;;;;;;5005642;28;20228;-61
2022/06/15 10:42:09;;;;;;;4.55;2.08;;;19.20;99.90;;;;;;4961493;28;20249;-62
2022/06/15 10:44:40;;;;;;;4.47;2.00;;;19.30;99.90;;;;;;4983310;28;20958;-61
2022/06/15 10:47:18;;;;;;;2.30;1.55;;;19.20;99.90;;;;;;4980402;28;20269;-61
2022/06/15 10:49:49;;;;;;;2.67;1.60;;;19.20;99.90;;;;;;4989598;28;20232;-61
2022/06/15 10:52:23;;;;;;;2.95;1.85;;;19.40;99.90;;;;;;4990603;28;20221;-62
2022/06/15 11:03:21;;;;;;;1.83;1.52;;;19.40;99.90;;;;;;5015920;28;20217;-62
2022/06/15 11:05:52;;;;;;;3.80;1.95;;;19.50;99.90;;;;;;4994739;28;20245;-62
2022/06/15 11:08:21;;;;;;;6.45;1.98;;;20.30;99.90;;;;;;5003923;28;20222;-62
2022/06/15 11:10:50;;;;;;;4.57;1.98;;;19.40;99.90;;;;;;4997979;28;20362;-62
2022/06/15 11:13:34;;;;;;;2.70;1.75;;;19.50;99.90;;;;;;4990992;28;20676;-62
2022/06/15 11:19:09;;;;;;;5.60;2.00;;;19.60;99.90;;;;;;4986922;28;20198;-62
2022/06/15 11:21:42;;;;;;;2.42;1.83;;;19.50;99.90;;;;;;4982636;28;20207;-62
2022/06/15 11:24:18;;;;;;;4.97;1.75;;;19.50;99.90;;;;;;5011756;28;20226;-63
2022/06/15 11:27:04;;;;;;;3.78;1.60;;;19.60;99.90;;;;;;4984692;28;23194;-62
2022/06/15 11:29:43;;;;;;;1.92;1.67;;;19.50;99.90;;;;;;4981490;28;20225;-63
2022/06/15 11:32:37;;;;;;;3.65;1.70;;;19.40;99.90;;;;;;4987318;28;20226;-62
2022/06/15 11:35:25;;;;;;;5.15;2.00;;;19.40;99.90;;;;;;4968565;28;20226;-62
2022/06/15 11:37:59;;;;;;;4.10;2.17;;;19.60;99.90;;;;;;4974754;28;20238;-62
2022/06/15 11:40:35;;;;;;;5.35;2.58;;;19.50;99.90;;;;;;4974142;28;20299;-62
2022/06/15 11:43:03;;;;;;;2.88;2.08;;;19.60;99.90;;;;;;4982904;28;20209;-62
2022/06/15 11:45:40;;;;;;;4.78;2.28;;;19.60;99.90;;;;;;4987314;28;20225;-62
2022/06/15 11:48:15;;;;;;;3.92;2.45;;;19.70;99.90;;;;;;4976376;28;20225;-62
2022/06/15 11:50:52;;;;;;;5.22;2.67;;;19.70;99.90;;;;;;4994791;28;20201;-62
2022/06/15 11:53:38;;;;;;;5.57;2.42;;;19.60;99.90;;;;;;4993826;28;20312;-62
2022/06/15 11:56:11;;;;;;;7.35;2.40;;;19.70;99.90;;;;;;4990309;28;20210;-62
2022/06/15 11:58:48;;;;;;;4.57;2.10;;;19.70;99.90;;;;;;4994334;28;20202;-63
2022/06/15 12:01:39;;;;;;;4.43;2.20;;;19.80;99.90;;;;;;4994392;28;20307;-63
2022/06/15 12:04:25;;;;;;;2.30;1.92;;;19.90;99.90;;;;;;4979598;28;20798;-62
2022/06/15 12:07:01;;;;;;;4.32;2.13;;;19.90;99.90;;;;;;4981340;28;20210;-63
2022/06/15 12:09:43;;;;;;;3.88;2.20;;;20.10;99.90;;;;;;4996443;28;20210;-62
2022/06/15 12:15:06;;;;;;;3.72;2.50;;;20.10;99.90;;;;;;4993016;28;20628;-62
2022/06/15 12:17:40;;;;;;;5.05;2.60;;;20.00;99.90;;;;;;4972916;28;20222;-63
2022/06/15 12:20:17;;;;;;;6.07;2.60;;;19.90;99.90;;;;;;4991062;28;27188;-63
2022/06/15 12:22:51;;;;;;;3.42;2.17;;;19.80;99.90;;;;;;4985365;28;20216;-63
2022/06/15 12:25:24;;;;;;;2.65;1.95;;;19.80;99.90;;;;;;4977306;28;20774;-63
2022/06/15 12:28:00;;;;;;;7.90;2.55;;;19.80;99.90;;;;;;4997801;28;20236;-63
2022/06/15 12:30:37;;;;;;;3.35;1.85;;;19.70;99.90;;;;;;4986458;28;20260;-63
2022/06/15 12:33:17;;;;;;;4.75;2.17;;;19.80;99.90;;;;;;5010171;28;20198;-62
2022/06/15 12:35:49;;;;;;;3.75;2.13;;;19.90;99.90;;;;;;4990334;28;20287;-63
2022/06/15 12:38:25;;;;;;;6.72;2.22;;;19.90;99.90;;;;;;4988755;28;20949;-63
2022/06/15 12:41:02;;;;;;;6.28;2.33;;;19.90;99.90;;;;;;4978368;28;20248;-63
2022/06/15 12:43:36;;;;;;;2.85;2.15;;;20.10;99.90;;;;;;5006714;28;20582;-63
2022/06/15 12:46:08;;;;;;;3.33;2.25;;;20.00;99.90;;;;;;4990286;28;20226;-63
2022/06/15 12:48:57;;;;;;;5.90;1.90;;;19.90;99.90;;;;;;4995736;28;20224;-63
2022/06/15 12:51:37;;;;;;;3.17;2.00;;;20.00;99.90;;;;;;5000697;28;20206;-62
2022/06/15 12:54:13;;;;;;;3.90;2.13;;;16.90;99.90;;;;;;4971784;28;20265;-63
2022/06/15 12:56:51;;;;;;;3.10;2.13;;;20.10;99.90;;;;;;4983230;28;20659;-63
2022/06/15 12:59:36;;;;;;;4.70;2.00;;;20.10;99.90;;;;;;4999999;28;20225;-63
2022/06/15 13:02:10;;;;;;;11.65;3.05;;;20.10;99.90;;;;;;4970062;28;20205;-62
2022/06/15 13:04:46;;;;;;;3.58;2.00;;;20.10;99.90;;;;;;4992986;28;20218;-63
2022/06/15 13:07:24;;;;;;;3.38;2.55;;;20.00;99.90;;;;;;4980571;28;20221;-62
2022/06/15 13:10:21;;;;;;;5.47;2.33;;;19.90;99.90;;;;;;4967762;28;20737;-63
2022/06/15 13:12:54;;;;;;;4.90;2.10;;;19.90;99.90;;;;;;4965716;28;21156;-62
2022/06/15 13:15:35;;;;;;;11.52;2.45;;;19.90;99.90;;;;;;4995055;28;20244;-63
2022/06/15 13:18:11;;;;;;;7.93;2.70;;;19.90;99.90;;;;;;4987297;28;20226;-63
2022/06/15 13:20:58;;;;;;;3.83;2.35;;;19.90;99.90;;;;;;5007328;28;20982;-63
2022/06/15 13:23:28;;;;;;;3.22;2.63;;;19.90;99.90;;;;;;4992592;28;20372;-63
2022/06/15 13:25:57;;;;;;;3.33;2.22;;;19.90;99.90;;;;;;5013668;22;20241;-63
2022/06/15 13:28:27;;;;;;;8.95;2.80;;;19.90;99.90;;;;;;4989036;28;20620;-63
2022/06/15 13:30:58;;;;;;;6.15;2.50;;;20.10;99.90;;;;;;4987951;28;20205;-63